sensor_id;sensor_type;location;lat;lon;timestamp;temperature;humidity
71396;DHT22;59888;55.814;37.132;2023-08-17T00:00:35;19.86;52.45
71396;DHT22;59888;55.814;37.132;2023-08-17T00:03:01;19.84;52.69
71396;DHT22;59888;55.814;37.132;2023-08-17T00:05:27;19.76;52.73
71396;DHT22;59888;55.814;37.132;2023-08-17T00:07:53;19.82;52.61
71396;DHT22;59888;55.814;37.132;2023-08-17T00:10:19;19.86;52.63
71396;DHT22;59888;55.814;37.132;2023-08-17T00:12:46;19.85;52.64
71396;DHT22;59888;55.814;37.132;2023-08-17T00:15:12;19.82;52.79
71396;DHT22;59888;55.814;37.132;2023-08-17T00:17:38;19.77;52.75
71396;DHT22;59888;55.814;37.132;2023-08-17T00:20:04;19.79;52.61
71396;DHT22;59888;55.814;37.132;2023-08-17T00:22:31;19.74;52.75
71396;DHT22;59888;55.814;37.132;2023-08-17T00:24:57;19.65;53.07
71396;DHT22;59888;55.814;37.132;2023-08-17T00:27:23;19.60;53.10
71396;DHT22;59888;55.814;37.132;2023-08-17T00:29:49;19.65;53.04
71396;DHT22;59888;55.814;37.132;2023-08-17T00:32:15;19.70;52.83
71396;DHT22;59888;55.814;37.132;2023-08-17T00:34:41;19.73;52.76
71396;DHT22;59888;55.814;37.132;2023-08-17T00:37:07;19.70;52.75
71396;DHT22;59888;55.814;37.132;2023-08-17T00:39:33;19.66;53.16
71396;DHT22;59888;55.814;37.132;2023-08-17T00:42:00;19.68;53.23
71396;DHT22;59888;55.814;37.132;2023-08-17T00:44:26;19.68;53.19
71396;DHT22;59888;55.814;37.132;2023-08-17T00:46:52;19.68;52.98
71396;DHT22;59888;55.814;37.132;2023-08-17T00:49:18;19.70;53.07
71396;DHT22;59888;55.814;37.132;2023-08-17T00:51:44;19.72;53.04
71396;DHT22;59888;55.814;37.132;2023-08-17T00:54:11;19.71;53.07
71396;DHT22;59888;55.814;37.132;2023-08-17T00:56:38;19.63;53.22
71396;DHT22;59888;55.814;37.132;2023-08-17T00:59:04;19.55;53.10
71396;DHT22;59888;55.814;37.132;2023-08-17T01:01:30;19.54;53.23
71396;DHT22;59888;55.814;37.132;2023-08-17T01:03:58;19.54;53.25
71396;DHT22;59888;55.814;37.132;2023-08-17T01:06:24;19.54;53.23
71396;DHT22;59888;55.814;37.132;2023-08-17T01:08:50;19.54;53.28
71396;DHT22;59888;55.814;37.132;2023-08-17T01:11:38;19.46;54.07
71396;DHT22;59888;55.814;37.132;2023-08-17T01:14:27;19.43;54.13
71396;DHT22;59888;55.814;37.132;2023-08-17T01:17:17;19.45;54.10
71396;DHT22;59888;55.814;37.132;2023-08-17T01:19:45;19.37;53.36
71396;DHT22;59888;55.814;37.132;2023-08-17T01:22:14;19.35;53.65
71396;DHT22;59888;55.814;37.132;2023-08-17T01:24:43;19.33;53.53
71396;DHT22;59888;55.814;37.132;2023-08-17T01:27:09;19.23;53.83
71396;DHT22;59888;55.814;37.132;2023-08-17T01:29:36;19.18;53.97
71396;DHT22;59888;55.814;37.132;2023-08-17T01:32:23;19.22;54.58
71396;DHT22;59888;55.814;37.132;2023-08-17T01:34:57;19.22;54.23
71396;DHT22;59888;55.814;37.132;2023-08-17T01:37:27;19.27;53.92
71396;DHT22;59888;55.814;37.132;2023-08-17T01:39:56;19.29;53.69
71396;DHT22;59888;55.814;37.132;2023-08-17T01:42:24;19.21;53.77
71396;DHT22;59888;55.814;37.132;2023-08-17T01:44:50;19.15;53.93
71396;DHT22;59888;55.814;37.132;2023-08-17T01:47:20;19.13;54.39
71396;DHT22;59888;55.814;37.132;2023-08-17T01:49:47;19.12;54.04
71396;DHT22;59888;55.814;37.132;2023-08-17T01:52:14;19.14;54.17
71396;DHT22;59888;55.814;37.132;2023-08-17T01:54:40;19.15;54.08
71396;DHT22;59888;55.814;37.132;2023-08-17T01:57:06;19.17;53.97
71396;DHT22;59888;55.814;37.132;2023-08-17T01:59:32;19.18;53.75
71396;DHT22;59888;55.814;37.132;2023-08-17T02:02:00;19.22;53.56
71396;DHT22;59888;55.814;37.132;2023-08-17T02:04:26;19.17;53.90
71396;DHT22;59888;55.814;37.132;2023-08-17T02:06:52;19.10;54.26
71396;DHT22;59888;55.814;37.132;2023-08-17T02:09:18;19.09;54.36
71396;DHT22;59888;55.814;37.132;2023-08-17T02:11:44;19.10;54.29
71396;DHT22;59888;55.814;37.132;2023-08-17T02:14:10;19.08;54.42
71396;DHT22;59888;55.814;37.132;2023-08-17T02:16:37;19.09;54.42
71396;DHT22;59888;55.814;37.132;2023-08-17T02:19:03;19.03;54.58
71396;DHT22;59888;55.814;37.132;2023-08-17T02:21:29;19.00;54.61
71396;DHT22;59888;55.814;37.132;2023-08-17T02:23:55;18.99;54.67
71396;DHT22;59888;55.814;37.132;2023-08-17T02:26:23;18.97;54.81
71396;DHT22;59888;55.814;37.132;2023-08-17T02:28:49;18.94;54.78
71396;DHT22;59888;55.814;37.132;2023-08-17T02:31:15;19.02;54.86
71396;DHT22;59888;55.814;37.132;2023-08-17T02:33:41;19.07;54.74
71396;DHT22;59888;55.814;37.132;2023-08-17T02:36:07;19.13;54.66
71396;DHT22;59888;55.814;37.132;2023-08-17T02:38:34;19.11;54.68
71396;DHT22;59888;55.814;37.132;2023-08-17T02:41:00;19.08;54.89
71396;DHT22;59888;55.814;37.132;2023-08-17T02:43:26;19.10;55.00
71396;DHT22;59888;55.814;37.132;2023-08-17T02:45:52;19.07;55.04
71396;DHT22;59888;55.814;37.132;2023-08-17T02:48:19;19.11;55.11
71396;DHT22;59888;55.814;37.132;2023-08-17T02:50:46;19.20;54.87
71396;DHT22;59888;55.814;37.132;2023-08-17T02:53:12;19.33;54.62
71396;DHT22;59888;55.814;37.132;2023-08-17T02:55:38;19.45;54.41
71396;DHT22;59888;55.814;37.132;2023-08-17T02:58:04;19.46;54.33
71396;DHT22;59888;55.814;37.132;2023-08-17T03:00:30;19.54;54.25
71396;DHT22;59888;55.814;37.132;2023-08-17T03:02:57;19.62;54.16
71396;DHT22;59888;55.814;37.132;2023-08-17T03:05:23;19.62;54.05
71396;DHT22;59888;55.814;37.132;2023-08-17T03:07:49;19.63;54.25
71396;DHT22;59888;55.814;37.132;2023-08-17T03:10:15;19.65;54.17
71396;DHT22;59888;55.814;37.132;2023-08-17T03:12:41;19.69;54.32
71396;DHT22;59888;55.814;37.132;2023-08-17T03:15:07;19.70;54.42
71396;DHT22;59888;55.814;37.132;2023-08-17T03:17:35;19.75;54.49
71396;DHT22;59888;55.814;37.132;2023-08-17T03:20:02;19.80;54.47
71396;DHT22;59888;55.814;37.132;2023-08-17T03:22:32;19.87;54.39
71396;DHT22;59888;55.814;37.132;2023-08-17T03:24:58;19.87;54.41
71396;DHT22;59888;55.814;37.132;2023-08-17T03:27:24;19.96;54.48
71396;DHT22;59888;55.814;37.132;2023-08-17T03:29:51;20.12;54.33
71396;DHT22;59888;55.814;37.132;2023-08-17T03:32:17;20.20;54.26
71396;DHT22;59888;55.814;37.132;2023-08-17T03:34:44;20.20;54.27
71396;DHT22;59888;55.814;37.132;2023-08-17T03:37:11;20.28;54.27
71396;DHT22;59888;55.814;37.132;2023-08-17T03:39:37;20.34;54.23
71396;DHT22;59888;55.814;37.132;2023-08-17T03:42:03;20.46;54.17
71396;DHT22;59888;55.814;37.132;2023-08-17T03:44:30;20.68;53.61
71396;DHT22;59888;55.814;37.132;2023-08-17T03:46:56;20.83;53.45
71396;DHT22;59888;55.814;37.132;2023-08-17T03:49:22;20.95;53.20
71396;DHT22;59888;55.814;37.132;2023-08-17T03:51:48;21.07;53.01
71396;DHT22;59888;55.814;37.132;2023-08-17T03:54:17;21.25;52.88
71396;DHT22;59888;55.814;37.132;2023-08-17T03:56:43;21.39;52.68
71396;DHT22;59888;55.814;37.132;2023-08-17T03:59:09;21.47;52.60
71396;DHT22;59888;55.814;37.132;2023-08-17T04:01:35;21.60;52.56
71396;DHT22;59888;55.814;37.132;2023-08-17T04:04:01;21.76;52.36
71396;DHT22;59888;55.814;37.132;2023-08-17T04:06:28;21.95;52.00
71396;DHT22;59888;55.814;37.132;2023-08-17T04:08:54;22.11;51.82
71396;DHT22;59888;55.814;37.132;2023-08-17T04:11:20;22.23;51.66
71396;DHT22;59888;55.814;37.132;2023-08-17T04:13:48;22.37;51.43
71396;DHT22;59888;55.814;37.132;2023-08-17T04:16:14;22.53;51.24
71396;DHT22;59888;55.814;37.132;2023-08-17T04:18:40;22.62;51.08
71396;DHT22;59888;55.814;37.132;2023-08-17T04:21:06;22.79;50.94
71396;DHT22;59888;55.814;37.132;2023-08-17T04:23:32;22.87;50.76
71396;DHT22;59888;55.814;37.132;2023-08-17T04:25:58;22.98;50.56
71396;DHT22;59888;55.814;37.132;2023-08-17T04:28:24;23.08;50.45
71396;DHT22;59888;55.814;37.132;2023-08-17T04:30:52;23.21;50.22
71396;DHT22;59888;55.814;37.132;2023-08-17T04:33:18;23.37;50.09
71396;DHT22;59888;55.814;37.132;2023-08-17T04:35:47;23.51;50.11
71396;DHT22;59888;55.814;37.132;2023-08-17T04:38:14;23.65;49.77
71396;DHT22;59888;55.814;37.132;2023-08-17T04:40:40;23.81;49.63
71396;DHT22;59888;55.814;37.132;2023-08-17T04:43:09;23.98;49.24
71396;DHT22;59888;55.814;37.132;2023-08-17T04:45:35;24.16;48.93
71396;DHT22;59888;55.814;37.132;2023-08-17T04:48:01;24.30;48.69
71396;DHT22;59888;55.814;37.132;2023-08-17T04:50:29;24.46;48.49
71396;DHT22;59888;55.814;37.132;2023-08-17T04:52:55;24.61;48.17
71396;DHT22;59888;55.814;37.132;2023-08-17T04:55:21;24.72;47.93
71396;DHT22;59888;55.814;37.132;2023-08-17T04:57:48;24.83;47.76
71396;DHT22;59888;55.814;37.132;2023-08-17T05:00:15;24.92;47.65
71396;DHT22;59888;55.814;37.132;2023-08-17T05:02:42;25.12;47.41
71396;DHT22;59888;55.814;37.132;2023-08-17T05:05:10;25.25;46.99
71396;DHT22;59888;55.814;37.132;2023-08-17T05:07:36;25.35;47.01
71396;DHT22;59888;55.814;37.132;2023-08-17T05:10:03;25.48;47.01
71396;DHT22;59888;55.814;37.132;2023-08-17T05:12:32;25.58;46.62
71396;DHT22;59888;55.814;37.132;2023-08-17T05:14:59;25.64;46.57
71396;DHT22;59888;55.814;37.132;2023-08-17T05:17:26;25.79;46.40
71396;DHT22;59888;55.814;37.132;2023-08-17T05:19:52;25.96;46.23
71396;DHT22;59888;55.814;37.132;2023-08-17T05:22:19;26.10;45.83
71396;DHT22;59888;55.814;37.132;2023-08-17T05:24:45;26.17;45.36
71396;DHT22;59888;55.814;37.132;2023-08-17T05:27:11;26.24;45.20
71396;DHT22;59888;55.814;37.132;2023-08-17T05:29:37;26.35;45.05
71396;DHT22;59888;55.814;37.132;2023-08-17T05:32:04;26.48;44.90
71396;DHT22;59888;55.814;37.132;2023-08-17T05:34:31;26.62;44.87
71396;DHT22;59888;55.814;37.132;2023-08-17T05:36:57;26.73;44.71
71396;DHT22;59888;55.814;37.132;2023-08-17T05:39:23;26.85;44.53
71396;DHT22;59888;55.814;37.132;2023-08-17T05:41:49;26.95;44.25
71396;DHT22;59888;55.814;37.132;2023-08-17T05:44:15;27.01;44.13
71396;DHT22;59888;55.814;37.132;2023-08-17T05:46:43;27.08;44.04
71396;DHT22;59888;55.814;37.132;2023-08-17T05:49:09;27.15;43.80
71396;DHT22;59888;55.814;37.132;2023-08-17T05:51:35;27.25;43.57
71396;DHT22;59888;55.814;37.132;2023-08-17T05:54:01;27.35;43.22
71396;DHT22;59888;55.814;37.132;2023-08-17T05:56:28;27.42;42.85
71396;DHT22;59888;55.814;37.132;2023-08-17T05:58:54;27.52;42.68
71396;DHT22;59888;55.814;37.132;2023-08-17T06:01:20;27.59;42.54
71396;DHT22;59888;55.814;37.132;2023-08-17T06:03:46;27.67;42.40
71396;DHT22;59888;55.814;37.132;2023-08-17T06:06:12;27.72;42.32
71396;DHT22;59888;55.814;37.132;2023-08-17T06:08:38;27.82;42.13
71396;DHT22;59888;55.814;37.132;2023-08-17T06:11:04;27.89;42.05
71396;DHT22;59888;55.814;37.132;2023-08-17T06:13:30;27.94;41.93
71396;DHT22;59888;55.814;37.132;2023-08-17T06:15:57;27.91;41.87
71396;DHT22;59888;55.814;37.132;2023-08-17T06:18:23;28.00;41.90
71396;DHT22;59888;55.814;37.132;2023-08-17T06:20:49;28.06;41.71
71396;DHT22;59888;55.814;37.132;2023-08-17T06:23:19;28.09;41.55
71396;DHT22;59888;55.814;37.132;2023-08-17T06:25:46;28.05;41.49
71396;DHT22;59888;55.814;37.132;2023-08-17T06:28:13;28.14;41.45
71396;DHT22;59888;55.814;37.132;2023-08-17T06:30:38;28.20;41.33
71396;DHT22;59888;55.814;37.132;2023-08-17T06:33:05;28.27;41.42
71396;DHT22;59888;55.814;37.132;2023-08-17T06:35:31;28.33;40.88
71396;DHT22;59888;55.814;37.132;2023-08-17T06:37:57;28.39;40.74
71396;DHT22;59888;55.814;37.132;2023-08-17T06:40:24;28.26;40.41
71396;DHT22;59888;55.814;37.132;2023-08-17T06:42:50;28.28;40.73
71396;DHT22;59888;55.814;37.132;2023-08-17T06:45:17;28.44;40.64
71396;DHT22;59888;55.814;37.132;2023-08-17T06:47:45;28.60;40.36
71396;DHT22;59888;55.814;37.132;2023-08-17T06:50:11;28.72;40.47
71396;DHT22;59888;55.814;37.132;2023-08-17T06:52:37;28.76;40.42
71396;DHT22;59888;55.814;37.132;2023-08-17T06:55:05;28.77;40.24
71396;DHT22;59888;55.814;37.132;2023-08-17T06:57:31;28.78;40.07
71396;DHT22;59888;55.814;37.132;2023-08-17T06:59:57;28.82;40.00
71396;DHT22;59888;55.814;37.132;2023-08-17T07:02:23;28.79;39.94
71396;DHT22;59888;55.814;37.132;2023-08-17T07:04:49;28.80;39.88
71396;DHT22;59888;55.814;37.132;2023-08-17T07:07:15;28.84;39.85
71396;DHT22;59888;55.814;37.132;2023-08-17T07:09:41;28.91;39.69
71396;DHT22;59888;55.814;37.132;2023-08-17T07:12:07;29.01;39.63
71396;DHT22;59888;55.814;37.132;2023-08-17T07:14:33;29.05;39.52
71396;DHT22;59888;55.814;37.132;2023-08-17T07:17:00;29.16;39.28
71396;DHT22;59888;55.814;37.132;2023-08-17T07:19:25;29.22;39.22
71396;DHT22;59888;55.814;37.132;2023-08-17T07:21:52;29.26;39.11
71396;DHT22;59888;55.814;37.132;2023-08-17T07:24:19;29.31;39.14
71396;DHT22;59888;55.814;37.132;2023-08-17T07:26:45;29.41;39.14
71396;DHT22;59888;55.814;37.132;2023-08-17T07:29:11;29.43;38.81
71396;DHT22;59888;55.814;37.132;2023-08-17T07:31:38;29.39;38.62
71396;DHT22;59888;55.814;37.132;2023-08-17T07:34:07;29.39;38.49
71396;DHT22;59888;55.814;37.132;2023-08-17T07:36:33;29.45;38.60
71396;DHT22;59888;55.814;37.132;2023-08-17T07:39:00;29.52;38.42
71396;DHT22;59888;55.814;37.132;2023-08-17T07:41:26;29.59;38.38
71396;DHT22;59888;55.814;37.132;2023-08-17T07:43:52;29.64;38.35
71396;DHT22;59888;55.814;37.132;2023-08-17T07:46:18;29.72;38.17
71396;DHT22;59888;55.814;37.132;2023-08-17T07:48:44;29.74;38.04
71396;DHT22;59888;55.814;37.132;2023-08-17T07:51:10;29.79;38.01
71396;DHT22;59888;55.814;37.132;2023-08-17T07:53:37;29.87;38.02
71396;DHT22;59888;55.814;37.132;2023-08-17T07:56:02;29.86;37.71
71396;DHT22;59888;55.814;37.132;2023-08-17T07:58:29;29.85;37.83
71396;DHT22;59888;55.814;37.132;2023-08-17T08:00:55;29.87;37.62
71396;DHT22;59888;55.814;37.132;2023-08-17T08:03:21;29.93;37.59
71396;DHT22;59888;55.814;37.132;2023-08-17T08:05:47;30.01;37.29
71396;DHT22;59888;55.814;37.132;2023-08-17T08:08:13;29.93;37.15
71396;DHT22;59888;55.814;37.132;2023-08-17T08:10:40;29.89;37.49
71396;DHT22;59888;55.814;37.132;2023-08-17T08:13:06;29.94;37.12
71396;DHT22;59888;55.814;37.132;2023-08-17T08:15:33;29.89;36.95
71396;DHT22;59888;55.814;37.132;2023-08-17T08:17:59;29.79;36.76
71396;DHT22;59888;55.814;37.132;2023-08-17T08:20:25;29.72;36.95
71396;DHT22;59888;55.814;37.132;2023-08-17T08:22:51;29.78;37.25
71396;DHT22;59888;55.814;37.132;2023-08-17T08:25:17;29.85;37.28
71396;DHT22;59888;55.814;37.132;2023-08-17T08:27:44;29.93;37.05
71396;DHT22;59888;55.814;37.132;2023-08-17T08:30:10;30.03;36.98
71396;DHT22;59888;55.814;37.132;2023-08-17T08:32:37;30.08;36.98
71396;DHT22;59888;55.814;37.132;2023-08-17T08:35:03;30.10;36.76
71396;DHT22;59888;55.814;37.132;2023-08-17T08:37:30;30.19;36.55
71396;DHT22;59888;55.814;37.132;2023-08-17T08:39:56;30.19;36.49
71396;DHT22;59888;55.814;37.132;2023-08-17T08:42:23;30.23;36.40
71396;DHT22;59888;55.814;37.132;2023-08-17T08:44:50;30.30;36.02
71396;DHT22;59888;55.814;37.132;2023-08-17T08:47:17;30.28;36.11
71396;DHT22;59888;55.814;37.132;2023-08-17T08:52:23;30.44;36.09
71396;DHT22;59888;55.814;37.132;2023-08-17T08:54:53;30.34;35.92
71396;DHT22;59888;55.814;37.132;2023-08-17T08:57:20;30.31;35.42
71396;DHT22;59888;55.814;37.132;2023-08-17T08:59:46;30.32;35.69
71396;DHT22;59888;55.814;37.132;2023-08-17T09:02:15;30.35;35.89
71396;DHT22;59888;55.814;37.132;2023-08-17T09:04:43;30.44;35.60
71396;DHT22;59888;55.814;37.132;2023-08-17T09:07:12;30.51;35.65
71396;DHT22;59888;55.814;37.132;2023-08-17T09:09:39;30.56;35.50
71396;DHT22;59888;55.814;37.132;2023-08-17T09:12:08;30.55;34.66
71396;DHT22;59888;55.814;37.132;2023-08-17T09:14:36;30.55;35.40
71396;DHT22;59888;55.814;37.132;2023-08-17T09:17:04;30.59;35.17
71396;DHT22;59888;55.814;37.132;2023-08-17T09:19:33;30.65;34.20
71396;DHT22;59888;55.814;37.132;2023-08-17T09:22:00;30.66;35.00
71396;DHT22;59888;55.814;37.132;2023-08-17T09:24:37;30.70;34.63
71396;DHT22;59888;55.814;37.132;2023-08-17T09:27:04;30.71;34.74
71396;DHT22;59888;55.814;37.132;2023-08-17T09:29:31;30.78;34.64
71396;DHT22;59888;55.814;37.132;2023-08-17T09:32:04;30.84;34.52
71396;DHT22;59888;55.814;37.132;2023-08-17T09:34:32;30.90;34.29
71396;DHT22;59888;55.814;37.132;2023-08-17T09:37:04;30.90;33.45
71396;DHT22;59888;55.814;37.132;2023-08-17T09:39:31;30.81;33.99
71396;DHT22;59888;55.814;37.132;2023-08-17T09:41:58;30.71;33.52
71396;DHT22;59888;55.814;37.132;2023-08-17T09:44:25;30.65;34.27
71396;DHT22;59888;55.814;37.132;2023-08-17T09:46:51;30.72;34.20
71396;DHT22;59888;55.814;37.132;2023-08-17T09:49:23;30.77;33.66
71396;DHT22;59888;55.814;37.132;2023-08-17T09:51:49;30.77;33.86
71396;DHT22;59888;55.814;37.132;2023-08-17T09:54:23;30.86;33.31
71396;DHT22;59888;55.814;37.132;2023-08-17T09:56:50;30.94;34.13
71396;DHT22;59888;55.814;37.132;2023-08-17T09:59:17;30.95;33.57
71396;DHT22;59888;55.814;37.132;2023-08-17T10:01:47;31.05;33.52
71396;DHT22;59888;55.814;37.132;2023-08-17T10:04:15;31.11;33.02
71396;DHT22;59888;55.814;37.132;2023-08-17T10:06:44;31.20;33.38
71396;DHT22;59888;55.814;37.132;2023-08-17T10:09:11;31.34;33.38
71396;DHT22;59888;55.814;37.132;2023-08-17T10:11:39;31.40;33.18
71396;DHT22;59888;55.814;37.132;2023-08-17T10:14:13;31.42;32.75
71396;DHT22;59888;55.814;37.132;2023-08-17T10:16:44;31.46;32.51
71396;DHT22;59888;55.814;37.132;2023-08-17T10:22:11;31.57;31.87
71396;DHT22;59888;55.814;37.132;2023-08-17T10:24:39;31.57;31.54
71396;DHT22;59888;55.814;37.132;2023-08-17T10:27:06;31.55;32.31
71396;DHT22;59888;55.814;37.132;2023-08-17T10:29:33;31.57;32.63
71396;DHT22;59888;55.814;37.132;2023-08-17T10:32:01;31.54;32.02
71396;DHT22;59888;55.814;37.132;2023-08-17T10:34:28;31.52;31.04
71396;DHT22;59888;55.814;37.132;2023-08-17T10:36:55;31.45;31.93
71396;DHT22;59888;55.814;37.132;2023-08-17T10:39:28;31.43;31.43
71396;DHT22;59888;55.814;37.132;2023-08-17T10:41:55;31.49;31.42
71396;DHT22;59888;55.814;37.132;2023-08-17T10:44:40;31.52;31.64
71396;DHT22;59888;55.814;37.132;2023-08-17T10:47:26;31.57;31.48
71396;DHT22;59888;55.814;37.132;2023-08-17T10:50:03;31.61;31.80
71396;DHT22;59888;55.814;37.132;2023-08-17T10:52:34;31.66;32.06
71396;DHT22;59888;55.814;37.132;2023-08-17T10:55:07;31.71;32.23
71396;DHT22;59888;55.814;37.132;2023-08-17T10:57:37;31.73;31.91
71396;DHT22;59888;55.814;37.132;2023-08-17T11:00:23;31.70;31.09
71396;DHT22;59888;55.814;37.132;2023-08-17T11:03:04;31.70;31.69
71396;DHT22;59888;55.814;37.132;2023-08-17T11:08:21;31.80;31.26
71396;DHT22;59888;55.814;37.132;2023-08-17T11:13:30;32.05;31.08
71396;DHT22;59888;55.814;37.132;2023-08-17T11:15:58;32.08;31.38
71396;DHT22;59888;55.814;37.132;2023-08-17T11:18:25;32.05;31.32
71396;DHT22;59888;55.814;37.132;2023-08-17T11:20:52;32.03;30.33
71396;DHT22;59888;55.814;37.132;2023-08-17T11:23:19;32.01;31.54
71396;DHT22;59888;55.814;37.132;2023-08-17T11:25:45;32.03;31.25
71396;DHT22;59888;55.814;37.132;2023-08-17T11:28:13;32.09;31.28
71396;DHT22;59888;55.814;37.132;2023-08-17T11:30:40;32.11;31.31
71396;DHT22;59888;55.814;37.132;2023-08-17T11:33:06;32.15;31.21
71396;DHT22;59888;55.814;37.132;2023-08-17T11:35:33;32.22;31.02
71396;DHT22;59888;55.814;37.132;2023-08-17T11:38:00;32.30;31.12
71396;DHT22;59888;55.814;37.132;2023-08-17T11:40:26;32.37;31.16
71396;DHT22;59888;55.814;37.132;2023-08-17T11:42:52;32.47;30.69
71396;DHT22;59888;55.814;37.132;2023-08-17T11:45:19;32.49;30.98
71396;DHT22;59888;55.814;37.132;2023-08-17T11:47:46;32.53;30.52
71396;DHT22;59888;55.814;37.132;2023-08-17T11:50:13;32.53;30.70
71396;DHT22;59888;55.814;37.132;2023-08-17T11:52:40;32.50;30.66
71396;DHT22;59888;55.814;37.132;2023-08-17T11:55:07;32.41;31.04
71396;DHT22;59888;55.814;37.132;2023-08-17T11:57:36;32.34;30.60
71396;DHT22;59888;55.814;37.132;2023-08-17T12:00:04;32.29;31.01
71396;DHT22;59888;55.814;37.132;2023-08-17T12:02:33;32.28;30.06
71396;DHT22;59888;55.814;37.132;2023-08-17T12:05:04;32.04;30.59
71396;DHT22;59888;55.814;37.132;2023-08-17T12:07:33;32.08;29.24
71396;DHT22;59888;55.814;37.132;2023-08-17T12:09:59;32.10;30.05
71396;DHT22;59888;55.814;37.132;2023-08-17T12:12:25;32.11;30.25
71396;DHT22;59888;55.814;37.132;2023-08-17T12:14:53;32.17;30.74
71396;DHT22;59888;55.814;37.132;2023-08-17T12:17:20;32.34;30.68
71396;DHT22;59888;55.814;37.132;2023-08-17T12:19:53;32.45;30.43
71396;DHT22;59888;55.814;37.132;2023-08-17T12:22:23;32.59;30.74
71396;DHT22;59888;55.814;37.132;2023-08-17T12:24:50;32.70;30.49
71396;DHT22;59888;55.814;37.132;2023-08-17T12:27:16;32.76;30.33
71396;DHT22;59888;55.814;37.132;2023-08-17T12:29:48;32.74;30.07
71396;DHT22;59888;55.814;37.132;2023-08-17T12:32:18;32.91;30.11
71396;DHT22;59888;55.814;37.132;2023-08-17T12:34:45;33.07;30.48
71396;DHT22;59888;55.814;37.132;2023-08-17T12:37:12;33.21;30.06
71396;DHT22;59888;55.814;37.132;2023-08-17T12:39:38;33.41;29.97
71396;DHT22;59888;55.814;37.132;2023-08-17T12:42:05;33.56;29.79
71396;DHT22;59888;55.814;37.132;2023-08-17T12:44:31;33.71;29.55
71396;DHT22;59888;55.814;37.132;2023-08-17T12:46:58;33.99;29.15
71396;DHT22;59888;55.814;37.132;2023-08-17T12:49:24;34.39;28.52
71396;DHT22;59888;55.814;37.132;2023-08-17T12:51:50;35.24;28.61
71396;DHT22;59888;55.814;37.132;2023-08-17T12:54:17;0.00;0.00
71396;DHT22;59888;55.814;37.132;2023-08-17T12:56:44;0.00;0.00
71396;DHT22;59888;55.814;37.132;2023-08-17T12:59:10;0.00;0.00
71396;DHT22;59888;55.814;37.132;2023-08-17T13:01:38;0.00;0.00
71396;DHT22;59888;55.814;37.132;2023-08-17T13:04:04;0.00;0.00
71396;DHT22;59888;55.814;37.132;2023-08-17T13:06:31;0.00;0.00
71396;DHT22;59888;55.814;37.132;2023-08-17T13:08:57;0.00;0.00
71396;DHT22;59888;55.814;37.132;2023-08-17T13:11:23;0.00;0.00
71396;DHT22;59888;55.814;37.132;2023-08-17T13:13:49;0.00;0.00
71396;DHT22;59888;55.814;37.132;2023-08-17T13:16:15;0.00;0.00
71396;DHT22;59888;55.814;37.132;2023-08-17T13:18:42;0.00;0.00
71396;DHT22;59888;55.814;37.132;2023-08-17T13:21:07;0.00;0.00
71396;DHT22;59888;55.814;37.132;2023-08-17T13:23:34;0.00;0.00
71396;DHT22;59888;55.814;37.132;2023-08-17T13:26:00;0.00;0.00
71396;DHT22;59888;55.814;37.132;2023-08-17T13:28:26;0.00;0.00
71396;DHT22;59888;55.814;37.132;2023-08-17T13:30:52;0.00;0.00
71396;DHT22;59888;55.814;37.132;2023-08-17T13:33:18;0.00;0.00
71396;DHT22;59888;55.814;37.132;2023-08-17T13:35:44;0.00;0.00
71396;DHT22;59888;55.814;37.132;2023-08-17T13:38:10;0.00;0.00
71396;DHT22;59888;55.814;37.132;2023-08-17T13:40:36;0.00;0.00
71396;DHT22;59888;55.814;37.132;2023-08-17T13:43:04;0.00;0.00
71396;DHT22;59888;55.814;37.132;2023-08-17T13:45:39;0.00;0.00
71396;DHT22;59888;55.814;37.132;2023-08-17T13:48:06;0.00;0.00
71396;DHT22;59888;55.814;37.132;2023-08-17T13:50:34;0.00;0.00
71396;DHT22;59888;55.814;37.132;2023-08-17T13:53:00;0.00;0.00
71396;DHT22;59888;55.814;37.132;2023-08-17T13:55:27;0.00;0.00
71396;DHT22;59888;55.814;37.132;2023-08-17T13:57:56;0.00;0.00
71396;DHT22;59888;55.814;37.132;2023-08-17T14:00:24;0.00;0.00
71396;DHT22;59888;55.814;37.132;2023-08-17T14:02:51;0.00;0.00
71396;DHT22;59888;55.814;37.132;2023-08-17T14:05:17;0.00;0.00
71396;DHT22;59888;55.814;37.132;2023-08-17T14:07:43;0.00;0.00
71396;DHT22;59888;55.814;37.132;2023-08-17T14:10:09;0.00;0.00
71396;DHT22;59888;55.814;37.132;2023-08-17T14:12:35;0.00;0.00
71396;DHT22;59888;55.814;37.132;2023-08-17T14:15:01;0.00;0.00
71396;DHT22;59888;55.814;37.132;2023-08-17T14:17:32;0.00;0.00
71396;DHT22;59888;55.814;37.132;2023-08-17T14:19:58;0.00;0.00
71396;DHT22;59888;55.814;37.132;2023-08-17T14:22:25;0.00;0.00
71396;DHT22;59888;55.814;37.132;2023-08-17T14:24:51;0.00;0.00
71396;DHT22;59888;55.814;37.132;2023-08-17T14:27:17;0.00;0.00
71396;DHT22;59888;55.814;37.132;2023-08-17T14:29:43;0.00;0.00
71396;DHT22;59888;55.814;37.132;2023-08-17T14:32:09;0.00;0.00
71396;DHT22;59888;55.814;37.132;2023-08-17T14:34:35;0.00;0.00
71396;DHT22;59888;55.814;37.132;2023-08-17T14:37:02;0.00;0.00
71396;DHT22;59888;55.814;37.132;2023-08-17T14:39:27;0.00;0.00
71396;DHT22;59888;55.814;37.132;2023-08-17T14:41:53;0.00;0.00
71396;DHT22;59888;55.814;37.132;2023-08-17T14:44:20;0.00;0.00
71396;DHT22;59888;55.814;37.132;2023-08-17T14:46:46;0.00;0.00
71396;DHT22;59888;55.814;37.132;2023-08-17T14:49:12;0.00;0.00
71396;DHT22;59888;55.814;37.132;2023-08-17T14:51:39;0.00;0.00
71396;DHT22;59888;55.814;37.132;2023-08-17T14:54:06;0.00;0.00
71396;DHT22;59888;55.814;37.132;2023-08-17T14:56:32;0.00;0.00
71396;DHT22;59888;55.814;37.132;2023-08-17T14:58:58;0.00;0.00
71396;DHT22;59888;55.814;37.132;2023-08-17T15:01:24;0.00;0.00
71396;DHT22;59888;55.814;37.132;2023-08-17T15:03:50;0.00;0.00
71396;DHT22;59888;55.814;37.132;2023-08-17T15:06:17;0.00;0.00
71396;DHT22;59888;55.814;37.132;2023-08-17T15:08:44;0.00;0.00
71396;DHT22;59888;55.814;37.132;2023-08-17T15:11:10;0.00;0.00
71396;DHT22;59888;55.814;37.132;2023-08-17T15:13:36;0.00;0.00
71396;DHT22;59888;55.814;37.132;2023-08-17T15:16:02;0.00;0.00
71396;DHT22;59888;55.814;37.132;2023-08-17T15:18:28;0.00;0.00
71396;DHT22;59888;55.814;37.132;2023-08-17T15:20:54;0.00;0.00
71396;DHT22;59888;55.814;37.132;2023-08-17T15:23:20;0.00;0.00
71396;DHT22;59888;55.814;37.132;2023-08-17T15:25:46;0.00;0.00
71396;DHT22;59888;55.814;37.132;2023-08-17T15:28:12;0.00;0.00
71396;DHT22;59888;55.814;37.132;2023-08-17T15:30:38;0.00;0.00